Time;durP1;ratioP1;P1;durP2;ratioP2;P2;SDS_P1;SDS_P2;PMS_P1;PMS_P2;Temp;Humidity;BMP_temperature;BMP_pressure;BME280_temperature;BME280_humidity;BME280_pressure;Samples;Min_cycle;Max_cycle;Signal;HPM_P1;HPM_P2
2022/05/24 00:02:19;;;;;;;17.00;12.47;;;15.30;99.90;;;;;;5015309;28;20180;-66
2022/05/24 00:04:45;;;;;;;13.70;12.30;;;15.30;99.90;;;;;;5012811;28;20695;-66
2022/05/24 00:07:11;;;;;;;15.63;11.90;;;15.30;99.90;;;;;;5028093;28;20196;-66
2022/05/24 00:09:37;;;;;;;14.03;12.53;;;15.40;99.90;;;;;;5033081;28;20190;-66
2022/05/24 00:12:03;;;;;;;15.77;12.97;;;15.40;99.90;;;;;;5018774;28;20544;-66
2022/05/24 00:17:13;;;;;;;13.50;12.20;;;15.40;99.90;;;;;;5026821;28;20318;-66
2022/05/24 00:19:39;;;;;;;13.97;11.57;;;15.40;99.90;;;;;;5032985;28;20254;-66
2022/05/24 00:22:04;;;;;;;12.67;11.33;;;15.40;99.90;;;;;;5031278;28;20262;-66
2022/05/24 00:24:30;;;;;;;12.33;11.03;;;15.40;99.90;;;;;;5031254;28;20199;-65
2022/05/24 00:26:55;;;;;;;12.97;11.73;;;15.50;99.90;;;;;;5022648;28;20204;-65
2022/05/24 00:29:21;;;;;;;13.50;12.13;;;15.50;99.90;;;;;;5013168;28;20175;-66
2022/05/24 00:31:47;;;;;;;12.53;11.23;;;15.50;99.90;;;;;;5020821;28;20555;-67
2022/05/24 00:34:13;;;;;;;13.27;11.90;;;15.60;99.90;;;;;;5032483;28;20655;-66
2022/05/24 00:36:38;;;;;;;16.80;11.60;;;15.60;99.90;;;;;;5025914;28;20549;-66
2022/05/24 00:39:04;;;;;;;11.73;10.53;;;15.60;99.90;;;;;;5013201;28;20176;-66
2022/05/24 00:41:54;;;;;;;13.00;11.67;;;15.60;99.90;;;;;;5016964;28;20275;-66
2022/05/24 00:44:43;;;;;;;12.13;11.03;;;15.60;99.90;;;;;;5031971;28;20286;-66
2022/05/24 00:47:17;;;;;;;11.90;10.73;;;15.70;99.90;;;;;;5023189;28;20196;-66
2022/05/24 00:49:53;;;;;;;14.40;11.27;;;15.70;99.90;;;;;;5018375;28;20170;-66
2022/05/24 00:52:45;;;;;;;12.53;11.23;;;15.70;99.90;;;;;;5032432;28;20250;-66
2022/05/24 00:55:14;;;;;;;12.90;11.37;;;15.60;99.90;;;;;;5022682;28;20646;-67
2022/05/24 00:57:57;;;;;;;13.70;11.30;;;15.60;99.90;;;;;;5012383;28;20176;-67
2022/05/24 01:00:23;;;;;;;11.67;10.47;;;15.60;99.90;;;;;;5018635;28;20298;-66
2022/05/24 01:02:49;;;;;;;13.17;11.03;;;15.60;99.90;;;;;;5017989;28;20271;-66
2022/05/24 01:05:20;;;;;;;11.83;10.73;;;15.70;99.90;;;;;;5012143;28;20183;-67
2022/05/24 01:07:45;;;;;;;12.20;10.90;;;15.70;99.90;;;;;;5012361;28;20160;-67
2022/05/24 01:10:31;;;;;;;12.87;11.33;;;15.70;99.90;;;;;;5017582;28;20313;-66
2022/05/24 01:13:03;;;;;;;12.73;11.17;;;15.70;99.90;;;;;;5031816;28;20194;-66
2022/05/24 01:15:29;;;;;;;12.20;11.07;;;15.80;99.90;;;;;;5022841;28;20215;-66
2022/05/24 01:17:57;;;;;;;12.33;11.23;;;15.80;99.90;;;;;;5012178;28;20663;-66
2022/05/24 01:20:23;;;;;;;14.00;12.17;;;15.80;99.90;;;;;;5017669;28;20183;-67
2022/05/24 01:23:03;;;;;;;15.93;11.70;;;15.80;99.90;;;;;;5031303;28;20175;-67
2022/05/24 01:25:46;;;;;;;16.83;11.60;;;15.70;99.90;;;;;;5024079;28;20200;-67
2022/05/24 01:28:19;;;;;;;12.77;11.47;;;15.70;99.90;;;;;;5012285;28;20177;-66
2022/05/24 01:30:45;;;;;;;11.23;9.73;;;15.60;99.90;;;;;;5012803;28;20191;-66
2022/05/24 01:36:10;;;;;;;11.30;9.57;;;15.40;99.90;;;;;;5027066;28;20270;-66
2022/05/24 01:38:39;;;;;;;10.53;9.53;;;15.40;99.90;;;;;;5031567;28;20229;-66
2022/05/24 01:41:07;;;;;;;11.20;10.13;;;15.20;99.90;;;;;;5015466;28;20180;-66
2022/05/24 01:43:33;;;;;;;10.40;9.50;;;15.20;99.90;;;;;;5018875;28;20195;-67
2022/05/24 01:46:06;;;;;;;10.40;9.47;;;15.10;99.90;;;;;;5030248;28;20188;-66
2022/05/24 01:48:38;;;;;;;9.80;8.90;;;15.10;99.90;;;;;;5023162;28;20205;-66
2022/05/24 01:51:05;;;;;;;10.57;9.57;;;15.00;99.90;;;;;;5014526;28;20530;-66
2022/05/24 01:53:37;;;;;;;10.37;9.37;;;14.90;99.90;;;;;;5029906;28;20180;-66
2022/05/24 01:56:06;;;;;;;10.00;9.13;;;14.80;99.90;;;;;;5029812;28;20222;-65
2022/05/24 01:58:35;;;;;;;10.43;8.47;;;14.90;99.90;;;;;;5031418;28;20264;-65
2022/05/24 02:01:11;;;;;;;8.93;8.03;;;14.80;99.90;;;;;;5029828;28;20183;-66
2022/05/24 02:03:37;;;;;;;8.83;8.13;;;14.80;99.90;;;;;;5011247;28;20203;-66
2022/05/24 02:06:38;;;;;;;8.17;7.50;;;14.80;99.90;;;;;;5012109;28;20294;-66
2022/05/24 02:09:06;;;;;;;8.20;7.50;;;14.80;99.90;;;;;;4973450;28;20181;-66
2022/05/24 02:11:33;;;;;;;10.40;7.17;;;14.70;99.90;;;;;;5014397;28;20180;-65
2022/05/24 02:14:37;;;;;;;7.40;6.67;;;14.60;99.90;;;;;;5011366;28;20180;-66
2022/05/24 02:17:18;;;;;;;6.87;6.10;;;14.60;99.90;;;;;;4962449;28;20747;-69
2022/05/24 02:19:52;;;;;;;7.53;6.97;;;14.60;99.90;;;;;;5028044;28;20183;-72
2022/05/24 02:22:22;;;;;;;6.93;6.30;;;14.60;99.90;;;;;;5018918;28;20222;-71
2022/05/24 02:25:03;;;;;;;8.07;6.70;;;14.50;99.90;;;;;;5011515;28;20295;-72
2022/05/24 02:27:29;;;;;;;6.97;6.47;;;14.50;99.90;;;;;;5027024;28;20183;-70
2022/05/24 02:29:55;;;;;;;7.00;6.50;;;14.50;99.90;;;;;;5031886;28;20277;-72
2022/05/24 02:32:21;;;;;;;7.30;6.70;;;14.60;99.90;;;;;;5020202;28;20180;-72
2022/05/24 02:34:46;;;;;;;8.23;7.53;;;14.60;99.90;;;;;;5012855;28;20303;-71
2022/05/24 02:37:12;;;;;;;8.07;7.57;;;14.60;99.90;;;;;;5016905;28;20207;-72
2022/05/24 02:42:23;;;;;;;8.93;7.60;;;14.60;99.90;;;;;;5028569;28;20186;-71
2022/05/24 02:44:49;;;;;;;7.90;7.30;;;14.60;99.90;;;;;;5036518;28;20203;-71
2022/05/24 02:47:15;;;;;;;8.40;7.60;;;14.60;99.90;;;;;;5025449;28;20204;-72
2022/05/24 02:49:41;;;;;;;7.50;6.80;;;14.60;99.90;;;;;;5017579;28;20176;-70
2022/05/24 02:52:07;;;;;;;8.13;7.07;;;14.50;99.90;;;;;;5025085;28;20172;-69
2022/05/24 02:54:33;;;;;;;9.23;8.43;;;14.60;99.90;;;;;;5035838;28;20199;-72
2022/05/24 02:57:01;;;;;;;7.93;7.13;;;14.50;99.90;;;;;;5029673;28;20559;-69
2022/05/24 02:59:27;;;;;;;8.20;7.60;;;14.50;99.90;;;;;;5015383;28;20184;-69
2022/05/24 03:01:53;;;;;;;7.53;6.83;;;14.40;99.90;;;;;;5020494;28;20175;-70
2022/05/24 03:04:18;;;;;;;8.37;6.90;;;14.30;99.90;;;;;;5034686;28;20203;-70
2022/05/24 03:09:35;;;;;;;7.17;6.57;;;14.20;99.90;;;;;;5017129;28;20203;-69
2022/05/24 03:14:50;;;;;;;6.90;6.40;;;14.20;99.90;;;;;;5031687;28;20597;-72
2022/05/24 03:17:16;;;;;;;6.80;6.20;;;14.10;99.90;;;;;;5016035;28;20246;-69
2022/05/24 03:19:42;;;;;;;8.60;7.00;;;14.10;99.90;;;;;;5017456;28;20176;-68
2022/05/24 03:22:09;;;;;;;6.67;6.10;;;14.10;99.90;;;;;;5034109;28;20206;-70
2022/05/24 03:24:35;;;;;;;7.17;5.90;;;14.10;99.90;;;;;;5035430;28;20199;-69
2022/05/24 03:27:05;;;;;;;7.20;6.60;;;14.00;99.90;;;;;;4996166;28;20660;-70
2022/05/24 03:29:31;;;;;;;7.43;6.90;;;14.10;99.90;;;;;;4996488;28;20215;-72
2022/05/24 03:31:57;;;;;;;7.57;7.00;;;14.10;99.90;;;;;;5014983;28;20678;-69
2022/05/24 03:34:22;;;;;;;7.90;7.27;;;14.20;99.90;;;;;;5014020;28;20176;-69
2022/05/24 03:36:48;;;;;;;7.13;6.63;;;14.20;99.90;;;;;;5031611;28;20218;-69
2022/05/24 03:39:14;;;;;;;7.63;6.87;;;14.20;99.90;;;;;;5034911;28;20168;-69
2022/05/24 03:41:43;;;;;;;9.30;6.30;;;14.30;99.90;;;;;;5019551;28;20594;-69
2022/05/24 03:44:09;;;;;;;7.20;6.60;;;14.20;99.90;;;;;;5014766;28;20563;-70
2022/05/24 03:46:35;;;;;;;6.90;6.30;;;14.10;99.90;;;;;;5027678;28;20227;-68
2022/05/24 03:49:01;;;;;;;6.90;5.83;;;14.20;99.90;;;;;;5034637;28;20179;-70
2022/05/24 03:51:26;;;;;;;6.00;5.60;;;14.20;99.90;;;;;;5022310;28;20217;-70
2022/05/24 03:53:52;;;;;;;6.83;6.33;;;14.20;99.90;;;;;;5026589;28;20179;-70
2022/05/24 03:56:18;;;;;;;6.97;6.23;;;14.20;99.90;;;;;;5023252;28;20204;-71
2022/05/24 03:58:43;;;;;;;6.40;5.90;;;14.10;99.90;;;;;;5020304;28;20202;-66
2022/05/24 04:01:10;;;;;;;8.37;6.13;;;14.20;99.90;;;;;;5033451;28;20167;-66
2022/05/24 04:03:36;;;;;;;6.67;6.17;;;14.10;99.90;;;;;;5028458;28;20224;-66
2022/05/24 04:06:02;;;;;;;6.43;6.03;;;14.10;99.90;;;;;;5013821;28;20718;-66
2022/05/24 04:08:29;;;;;;;6.40;5.90;;;14.10;99.90;;;;;;5015970;28;20271;-66
2022/05/24 04:11:13;;;;;;;6.33;5.83;;;14.10;99.90;;;;;;5033229;28;20601;-66
2022/05/24 04:13:41;;;;;;;5.83;5.43;;;14.10;99.90;;;;;;5028950;28;20215;-65
2022/05/24 04:16:08;;;;;;;5.90;5.40;;;14.10;99.90;;;;;;5045940;22;20775;-67
2022/05/24 04:18:34;;;;;;;6.37;5.97;;;14.00;99.90;;;;;;5032730;28;20662;-67
2022/05/24 04:21:00;;;;;;;6.50;5.93;;;14.00;99.90;;;;;;5032915;28;20172;-67
2022/05/24 04:23:27;;;;;;;6.47;5.90;;;13.90;99.90;;;;;;5032388;28;20270;-67
2022/05/24 04:25:54;;;;;;;6.43;6.00;;;13.80;99.90;;;;;;5032620;28;20196;-67
2022/05/24 04:28:20;;;;;;;6.10;5.50;;;13.70;99.90;;;;;;5032907;28;20546;-67
2022/05/24 04:30:47;;;;;;;6.67;6.17;;;13.50;99.90;;;;;;5032528;28;20183;-67
2022/05/24 04:33:15;;;;;;;5.47;5.17;;;13.50;99.90;;;;;;5015289;28;20176;-67
2022/05/24 04:35:41;;;;;;;6.33;5.83;;;13.30;99.90;;;;;;5032119;28;20203;-68
2022/05/24 04:38:07;;;;;;;6.33;5.93;;;13.10;99.90;;;;;;5032720;28;20172;-68
2022/05/24 04:43:16;;;;;;;6.43;5.90;;;12.80;99.90;;;;;;5032508;28;20214;-68
2022/05/24 04:45:42;;;;;;;6.77;6.00;;;12.70;99.90;;;;;;5031843;28;20203;-68
2022/05/24 04:48:08;;;;;;;6.10;5.70;;;12.70;99.90;;;;;;5032592;28;20552;-68
2022/05/24 04:50:35;;;;;;;8.20;6.40;;;12.70;99.90;;;;;;5014335;28;20179;-68
2022/05/24 04:53:01;;;;;;;7.50;7.00;;;12.70;99.90;;;;;;5032456;28;20286;-68
2022/05/24 04:55:28;;;;;;;6.63;6.13;;;12.70;99.90;;;;;;5031465;28;20258;-68
2022/05/24 04:57:55;;;;;;;6.63;6.17;;;12.80;99.90;;;;;;5013974;28;20171;-68
2022/05/24 05:00:21;;;;;;;6.30;5.70;;;12.80;99.90;;;;;;5032018;28;20210;-68
2022/05/24 05:02:47;;;;;;;7.00;6.40;;;12.80;99.90;;;;;;5032033;28;20171;-68
2022/05/24 05:05:13;;;;;;;6.80;6.20;;;12.80;99.90;;;;;;5031763;28;20548;-68
2022/05/24 05:07:40;;;;;;;6.43;6.10;;;12.70;99.90;;;;;;5032173;28;20670;-68
2022/05/24 05:10:07;;;;;;;6.93;6.43;;;12.80;99.90;;;;;;5032201;28;20166;-68
2022/05/24 05:12:33;;;;;;;7.00;6.30;;;12.80;99.90;;;;;;5032003;28;20160;-68
2022/05/24 05:14:59;;;;;;;7.27;6.50;;;12.70;99.90;;;;;;5031294;28;20203;-68
2022/05/24 05:17:24;;;;;;;7.30;6.60;;;12.70;99.90;;;;;;5031822;28;20195;-68
2022/05/24 05:19:50;;;;;;;7.17;6.47;;;12.70;99.90;;;;;;5013979;28;20182;-67
2022/05/24 05:22:18;;;;;;;7.87;7.07;;;12.60;99.90;;;;;;5032092;28;20194;-68
2022/05/24 05:24:44;;;;;;;7.83;6.30;;;12.60;99.90;;;;;;5031212;28;20179;-68
2022/05/24 05:27:10;;;;;;;8.53;6.93;;;12.50;99.90;;;;;;5013881;28;20191;-67
2022/05/24 05:32:23;;;;;;;7.10;6.60;;;12.40;99.90;;;;;;5032043;28;20202;-67
2022/05/24 05:34:49;;;;;;;7.33;6.80;;;12.30;99.90;;;;;;5030815;28;20211;-67
2022/05/24 05:37:15;;;;;;;6.77;6.27;;;12.20;99.90;;;;;;5031697;28;20819;-67
2022/05/24 05:39:41;;;;;;;6.97;6.47;;;12.10;99.90;;;;;;5031438;28;20209;-67
2022/05/24 05:42:07;;;;;;;6.20;5.80;;;12.00;99.90;;;;;;5031642;28;20230;-67
2022/05/24 05:44:33;;;;;;;6.47;6.07;;;11.90;99.90;;;;;;5030832;28;20179;-68
2022/05/24 05:46:58;;;;;;;6.40;5.90;;;12.00;99.90;;;;;;5031129;28;20248;-68
2022/05/24 05:49:24;;;;;;;6.43;5.93;;;11.90;99.90;;;;;;5031260;28;20665;-68
2022/05/24 05:51:50;;;;;;;8.63;6.10;;;11.80;99.90;;;;;;5031081;28;20243;-68
2022/05/24 05:54:15;;;;;;;8.03;6.73;;;11.80;99.90;;;;;;5030418;28;20227;-68
2022/05/24 05:56:41;;;;;;;6.80;6.20;;;11.70;99.90;;;;;;5031189;28;20558;-67
2022/05/24 05:59:07;;;;;;;6.27;5.83;;;11.70;99.90;;;;;;5031016;28;20753;-68
2022/05/24 06:01:33;;;;;;;7.63;7.03;;;11.70;99.90;;;;;;5013846;28;20678;-68
2022/05/24 06:04:00;;;;;;;10.27;7.77;;;11.60;99.90;;;;;;5030589;28;20233;-68
2022/05/24 06:06:30;;;;;;;869.53;376.23;;;11.70;99.90;;;;;;5013494;28;20203;-68
2022/05/24 06:08:56;;;;;;;1999.90;999.90;;;11.70;99.90;;;;;;5031188;28;20657;-68
2022/05/24 06:11:23;;;;;;;1999.90;999.90;;;11.80;99.90;;;;;;5034353;28;20207;-68
2022/05/24 06:13:50;;;;;;;247.83;174.70;;;11.90;99.90;;;;;;5034174;28;20227;-68
2022/05/24 06:16:16;;;;;;;131.40;46.43;;;11.90;99.90;;;;;;5035304;28;20587;-68
2022/05/24 06:18:42;;;;;;;17.93;16.80;;;11.80;99.90;;;;;;5034964;28;20270;-68
2022/05/24 06:21:07;;;;;;;5.83;5.43;;;11.80;99.90;;;;;;5035207;28;20605;-68
2022/05/24 06:23:33;;;;;;;6.20;5.90;;;11.80;99.90;;;;;;5034441;28;20191;-68
2022/05/24 06:25:58;;;;;;;5.27;5.07;;;11.80;99.90;;;;;;5035001;28;20226;-68
2022/05/24 06:28:24;;;;;;;5.60;5.30;;;11.80;99.90;;;;;;5035168;28;20175;-68
2022/05/24 06:30:50;;;;;;;5.80;5.40;;;11.80;99.90;;;;;;5022650;28;20655;-68
2022/05/24 06:33:15;;;;;;;5.37;5.00;;;11.70;99.90;;;;;;5035021;28;20191;-68
2022/05/24 06:35:42;;;;;;;5.67;5.40;;;11.70;99.90;;;;;;5034510;28;20198;-68
2022/05/24 06:38:08;;;;;;;6.00;5.50;;;11.70;99.90;;;;;;5034840;28;20171;-69
2022/05/24 06:40:34;;;;;;;6.20;5.70;;;11.70;99.90;;;;;;5015444;28;20173;-68
2022/05/24 06:43:01;;;;;;;5.40;5.10;;;11.80;99.90;;;;;;5017224;28;20214;-68
2022/05/24 06:45:26;;;;;;;6.40;5.90;;;11.80;99.90;;;;;;5034222;28;20225;-68
2022/05/24 06:47:52;;;;;;;6.53;6.03;;;12.00;99.90;;;;;;5033580;28;20180;-67
2022/05/24 06:50:18;;;;;;;6.00;5.60;;;12.00;99.90;;;;;;5016348;28;20263;-68
2022/05/24 06:52:44;;;;;;;5.53;5.23;;;12.30;99.90;;;;;;5034518;28;20164;-68
2022/05/24 06:55:11;;;;;;;5.53;5.23;;;12.50;99.90;;;;;;5033667;28;20228;-67
2022/05/24 06:57:36;;;;;;;6.23;5.83;;;12.70;99.90;;;;;;5033860;28;20607;-68
2022/05/24 07:02:49;;;;;;;6.23;5.77;;;12.70;99.90;;;;;;5034423;28;20725;-68
2022/05/24 07:05:20;;;;;;;6.63;6.13;;;12.90;99.90;;;;;;5034271;28;20254;-67
2022/05/24 07:07:46;;;;;;;5.93;5.50;;;13.00;99.90;;;;;;5034038;28;20176;-68
2022/05/24 07:10:17;;;;;;;5.87;5.40;;;13.10;99.90;;;;;;5016687;28;20659;-67
2022/05/24 07:12:42;;;;;;;6.07;5.67;;;13.20;99.90;;;;;;5033877;28;20673;-67
2022/05/24 07:15:09;;;;;;;7.83;5.13;;;13.10;99.90;;;;;;5033768;28;20767;-68
2022/05/24 07:17:35;;;;;;;5.53;5.23;;;13.30;99.90;;;;;;5015726;28;20207;-68
2022/05/24 07:20:01;;;;;;;5.33;5.03;;;13.50;99.90;;;;;;5033845;28;20527;-68
2022/05/24 07:22:26;;;;;;;7.93;5.30;;;13.70;99.90;;;;;;5033060;28;20211;-68
2022/05/24 07:24:52;;;;;;;7.60;5.90;;;13.70;99.90;;;;;;5033329;28;20179;-68
2022/05/24 07:27:20;;;;;;;6.13;5.63;;;13.90;99.90;;;;;;5033597;28;20199;-67
2022/05/24 07:29:46;;;;;;;6.37;5.77;;;14.20;99.90;;;;;;5033758;28;20182;-68
2022/05/24 07:32:12;;;;;;;5.57;5.17;;;14.60;99.90;;;;;;5033653;28;20258;-68
2022/05/24 07:34:38;;;;;;;5.13;4.73;;;15.00;99.90;;;;;;5015450;28;20285;-67
2022/05/24 07:37:06;;;;;;;5.40;5.00;;;15.30;99.90;;;;;;5015676;28;20572;-68
2022/05/24 07:39:33;;;;;;;8.03;5.07;;;15.50;99.90;;;;;;5015876;28;20194;-68
2022/05/24 07:47:18;;;;;;;4.80;4.50;;;15.20;99.90;;;;;;5013659;28;20666;-67
2022/05/24 07:49:44;;;;;;;4.77;4.57;;;15.10;99.90;;;;;;5013701;28;20250;-68
2022/05/24 07:52:10;;;;;;;5.03;4.73;;;15.10;99.90;;;;;;5032135;28;20253;-67
2022/05/24 07:54:36;;;;;;;5.07;4.60;;;15.30;99.90;;;;;;5033182;28;20214;-67
2022/05/24 07:57:02;;;;;;;4.57;4.37;;;15.60;99.90;;;;;;5032985;28;20744;-68
2022/05/24 07:59:28;;;;;;;4.40;4.10;;;15.80;99.90;;;;;;5033305;28;20203;-67
2022/05/24 08:01:53;;;;;;;4.30;4.00;;;15.90;99.90;;;;;;5032981;28;20248;-68
2022/05/24 08:04:19;;;;;;;4.77;4.47;;;16.20;99.90;;;;;;5033059;28;20662;-67
2022/05/24 08:06:45;;;;;;;4.50;4.20;;;16.60;99.90;;;;;;5032708;28;20203;-67
2022/05/24 08:09:11;;;;;;;4.50;4.20;;;16.90;99.90;;;;;;5032825;28;20183;-67
2022/05/24 08:11:37;;;;;;;4.43;4.13;;;17.10;99.90;;;;;;5032925;28;20321;-67
2022/05/24 08:14:03;;;;;;;4.50;4.23;;;17.40;99.90;;;;;;5032600;28;20210;-67
2022/05/24 08:16:30;;;;;;;4.17;3.97;;;17.30;99.90;;;;;;5032859;28;20294;-68
2022/05/24 08:18:58;;;;;;;4.00;3.80;;;17.70;99.90;;;;;;5032522;28;20176;-67
2022/05/24 08:21:27;;;;;;;7.93;5.20;;;18.20;99.90;;;;;;5033323;28;20656;-67
2022/05/24 08:23:54;;;;;;;4.93;4.63;;;17.90;99.90;;;;;;5032106;28;20176;-67
2022/05/24 08:26:19;;;;;;;4.57;4.27;;;17.30;99.90;;;;;;5032645;28;20206;-67
2022/05/24 08:28:47;;;;;;;4.87;4.57;;;17.00;99.90;;;;;;5032766;28;20179;-67
2022/05/24 08:31:14;;;;;;;5.03;3.90;;;16.80;99.90;;;;;;5032202;28;20552;-67
2022/05/24 08:33:41;;;;;;;4.20;4.00;;;17.20;99.90;;;;;;5031252;28;20414;-67
2022/05/24 08:36:07;;;;;;;4.23;3.83;;;17.90;99.90;;;;;;5032512;28;20210;-67
2022/05/24 08:38:34;;;;;;;4.10;3.80;;;18.50;99.90;;;;;;5032559;28;20198;-67
2022/05/24 08:41:03;;;;;;;3.73;3.53;;;19.20;99.90;;;;;;5032328;28;20179;-67
2022/05/24 08:48:22;;;;;;;4.00;3.70;;;19.40;99.90;;;;;;5032144;28;20180;-67
2022/05/24 08:49:37;;;;;;;3.70;3.60;;;19.60;99.90;;;;;;5032457;28;20186;-67
2022/05/24 08:52:04;;;;;;;3.43;3.23;;;20.00;99.90;;;;;;5032100;28;20179;-67
2022/05/24 08:54:46;;;;;;;4.87;3.87;;;20.00;99.90;;;;;;5014204;28;20584;-68
2022/05/24 08:57:16;;;;;;;3.80;3.40;;;20.20;99.90;;;;;;5031842;28;20201;-67
2022/05/24 08:59:53;;;;;;;3.87;3.63;;;19.80;99.90;;;;;;5013660;28;20258;-67
2022/05/24 09:02:20;;;;;;;3.20;3.10;;;20.00;99.90;;;;;;5031916;28;20176;-67
2022/05/24 09:04:45;;;;;;;3.40;3.30;;;19.60;99.90;;;;;;5031840;28;20251;-67
2022/05/24 09:07:35;;;;;;;3.90;3.70;;;19.10;99.90;;;;;;5031465;28;20722;-68
2022/05/24 09:10:08;;;;;;;3.83;3.63;;;18.30;99.90;;;;;;5032079;28;20258;-67
2022/05/24 09:12:53;;;;;;;4.60;4.30;;;17.70;99.90;;;;;;5047187;28;20550;-67
2022/05/24 09:15:30;;;;;;;7.83;7.30;;;17.20;99.90;;;;;;5031294;28;20183;-67
2022/05/24 09:18:34;;;;;;;5.13;4.83;;;16.80;99.90;;;;;;5014179;28;20183;-67
2022/05/24 09:21:00;;;;;;;4.40;4.20;;;16.60;99.90;;;;;;5031380;28;20171;-67
2022/05/24 09:23:56;;;;;;;4.40;4.10;;;16.30;99.90;;;;;;5013872;28;20258;-67
2022/05/24 09:26:24;;;;;;;4.87;4.57;;;16.40;99.90;;;;;;5031717;28;20203;-67
2022/05/24 09:28:56;;;;;;;4.70;4.50;;;16.80;99.90;;;;;;5031665;28;20171;-67
2022/05/24 09:31:31;;;;;;;5.50;5.00;;;17.30;99.90;;;;;;5031534;28;20171;-67
2022/05/24 09:34:04;;;;;;;4.33;3.60;;;17.80;99.90;;;;;;5013495;28;20211;-67
2022/05/24 09:36:39;;;;;;;4.07;3.80;;;18.60;99.90;;;;;;5031528;28;20694;-67
2022/05/24 09:39:26;;;;;;;3.50;3.30;;;19.10;99.90;;;;;;5031349;28;20205;-67
2022/05/24 09:41:53;;;;;;;3.20;3.10;;;20.10;99.90;;;;;;5030557;28;20187;-67
2022/05/24 09:44:19;;;;;;;3.80;3.60;;;20.00;99.90;;;;;;5032233;28;20659;-67
2022/05/24 09:46:45;;;;;;;3.90;3.60;;;20.00;99.90;;;;;;5030034;28;20203;-67
2022/05/24 09:49:27;;;;;;;3.60;3.40;;;20.00;99.90;;;;;;5031205;28;20611;-67
2022/05/24 09:51:58;;;;;;;3.70;3.50;;;20.20;99.90;;;;;;5031368;28;20568;-67
2022/05/24 09:54:28;;;;;;;3.40;3.20;;;20.10;99.90;;;;;;5030788;28;20207;-67
2022/05/24 09:57:08;;;;;;;3.50;3.20;;;20.20;99.90;;;;;;5031790;28;20513;-66
2022/05/24 09:59:39;;;;;;;3.50;3.30;;;19.80;99.90;;;;;;5017240;28;20179;-67
2022/05/24 10:02:27;;;;;;;3.70;3.40;;;20.00;99.90;;;;;;5031412;28;20186;-67
2022/05/24 10:04:52;;;;;;;3.30;3.10;;;20.20;99.90;;;;;;5031158;28;20229;-67
2022/05/24 10:07:34;;;;;;;3.20;3.00;;;20.50;99.90;;;;;;5030943;28;20284;-67
2022/05/24 10:10:14;;;;;;;3.50;3.30;;;20.80;99.90;;;;;;5030952;28;20198;-67
2022/05/24 10:13:07;;;;;;;3.30;3.03;;;21.20;99.90;;;;;;5027431;28;20179;-67
2022/05/24 10:15:35;;;;;;;3.08;2.90;;;21.70;99.90;;;;;;5030565;28;20187;-67
2022/05/24 10:18:14;;;;;;;3.20;3.00;;;21.80;99.90;;;;;;5075430;22;20278;-66
2022/05/24 10:20:47;;;;;;;3.30;3.10;;;21.40;99.90;;;;;;5065431;28;20170;-66
2022/05/24 10:23:40;;;;;;;3.40;3.20;;;20.70;99.90;;;;;;5071375;28;20531;-66
2022/05/24 10:26:43;;;;;;;3.63;3.43;;;20.00;99.90;;;;;;5053913;28;20181;-66
2022/05/24 10:29:47;;;;;;;3.90;3.70;;;19.90;99.90;;;;;;5032962;28;20168;-65
2022/05/24 10:38:54;;;;;;;4.30;3.90;;;19.10;99.90;;;;;;5051196;28;20673;-66
2022/05/24 10:41:38;;;;;;;4.20;3.90;;;18.60;99.90;;;;;;5051261;28;20642;-65
2022/05/24 10:44:15;;;;;;;4.10;3.90;;;18.30;99.90;;;;;;5051019;28;20185;-65
2022/05/24 10:47:00;;;;;;;5.47;5.13;;;18.10;99.90;;;;;;5051066;28;20190;-65
2022/05/24 10:49:39;;;;;;;4.23;4.03;;;18.00;99.90;;;;;;5050576;28;20185;-66
2022/05/24 10:52:13;;;;;;;3.70;3.40;;;18.50;99.90;;;;;;5051113;28;20173;-65
2022/05/24 10:55:15;;;;;;;3.97;3.70;;;19.10;99.90;;;;;;5050420;28;20233;-66
2022/05/24 10:58:00;;;;;;;3.80;3.60;;;19.60;99.90;;;;;;5053601;28;20265;-66
2022/05/24 11:00:37;;;;;;;3.60;3.40;;;20.00;99.90;;;;;;5046714;28;20199;-65
2022/05/24 11:03:29;;;;;;;3.70;3.50;;;20.20;99.90;;;;;;5054301;28;20179;-66
2022/05/24 11:06:06;;;;;;;3.60;3.40;;;20.60;99.90;;;;;;5034006;28;20271;-65
2022/05/24 11:08:51;;;;;;;3.60;3.33;;;20.90;99.90;;;;;;5035388;28;20530;-66
2022/05/24 11:11:20;;;;;;;3.27;3.17;;;21.20;99.90;;;;;;5034434;28;20227;-65
2022/05/24 11:14:06;;;;;;;3.50;3.20;;;21.70;99.90;;;;;;5047091;28;20229;-66
2022/05/24 11:16:40;;;;;;;3.90;3.60;;;21.90;99.90;;;;;;5057791;28;20285;-66
2022/05/24 11:19:27;;;;;;;3.60;3.47;;;21.30;99.90;;;;;;5054627;28;20174;-65
2022/05/24 11:22:19;;;;;;;3.63;3.43;;;20.40;99.90;;;;;;5054480;28;20163;-66
2022/05/24 11:25:25;;;;;;;4.03;3.67;;;20.00;99.90;;;;;;5053365;28;20232;-65
2022/05/24 11:27:59;;;;;;;4.47;4.17;;;19.30;99.90;;;;;;5053786;28;20267;-65
2022/05/24 11:30:30;;;;;;;4.30;4.10;;;18.90;99.90;;;;;;5054123;28;20179;-65
2022/05/24 11:33:05;;;;;;;4.43;4.23;;;18.50;99.90;;;;;;5053638;28;20174;-65
2022/05/24 11:35:46;;;;;;;4.30;4.00;;;18.40;99.90;;;;;;5053501;28;20650;-65
2022/05/24 11:38:13;;;;;;;4.13;3.83;;;18.00;99.90;;;;;;5053600;28;20209;-65
2022/05/24 11:40:55;;;;;;;4.37;3.97;;;17.70;99.90;;;;;;5053783;28;20634;-66
2022/05/24 11:43:35;;;;;;;3.80;3.60;;;17.80;99.90;;;;;;5053485;28;20542;-66
2022/05/24 11:46:29;;;;;;;3.80;3.60;;;18.50;99.90;;;;;;5053703;28;20166;-66
2022/05/24 11:48:59;;;;;;;4.40;4.20;;;19.40;99.90;;;;;;5053369;28;20266;-66
2022/05/24 11:51:46;;;;;;;3.87;3.63;;;20.00;99.90;;;;;;5053460;28;20175;-66
2022/05/24 11:54:18;;;;;;;3.47;3.20;;;20.80;99.90;;;;;;5052872;28;20210;-66
2022/05/24 11:57:02;;;;;;;3.70;3.50;;;20.80;99.90;;;;;;5053237;28;20199;-67
2022/05/24 11:59:48;;;;;;;3.63;3.50;;;20.70;99.90;;;;;;5053304;28;20183;-65
2022/05/24 12:02:27;;;;;;;3.43;3.23;;;20.40;99.90;;;;;;5053152;28;20213;-66
2022/05/24 12:07:59;;;;;;;3.63;3.27;;;21.50;99.90;;;;;;5052694;28;20201;-66
2022/05/24 12:10:25;;;;;;;4.20;3.20;;;21.20;99.90;;;;;;5052025;28;20182;-67
2022/05/24 12:13:02;;;;;;;3.60;3.50;;;20.60;99.90;;;;;;5052828;28;20748;-66
2022/05/24 12:15:31;;;;;;;4.20;4.00;;;20.00;99.90;;;;;;5052672;28;20549;-66
2022/05/24 12:17:59;;;;;;;4.27;4.07;;;19.40;99.90;;;;;;5052999;28;20213;-65
2022/05/24 12:20:34;;;;;;;4.10;3.90;;;19.30;99.90;;;;;;5052868;28;20174;-65
2022/05/24 12:23:14;;;;;;;3.93;3.73;;;19.20;99.90;;;;;;5052979;28;20176;-65
2022/05/24 12:25:52;;;;;;;4.30;4.10;;;18.90;99.90;;;;;;5052189;28;20178;-65
2022/05/24 12:28:23;;;;;;;3.80;3.67;;;18.60;99.90;;;;;;5052743;28;20182;-66
2022/05/24 12:30:50;;;;;;;4.07;3.80;;;18.60;99.90;;;;;;5052775;28;20163;-65
2022/05/24 12:33:33;;;;;;;4.20;3.80;;;18.70;99.90;;;;;;5052321;28;20247;-65
2022/05/24 12:36:32;;;;;;;3.73;3.53;;;19.10;99.90;;;;;;5052795;28;20171;-65
2022/05/24 12:39:03;;;;;;;3.30;3.10;;;20.00;99.90;;;;;;5052809;28;20171;-66
2022/05/24 12:41:39;;;;;;;3.40;3.23;;;20.40;99.90;;;;;;5052631;28;20178;-66
2022/05/24 12:44:18;;;;;;;3.50;3.30;;;20.40;99.90;;;;;;5052079;28;20228;-66
2022/05/24 12:46:49;;;;;;;4.00;3.60;;;20.00;99.90;;;;;;5052396;28;20244;-65
2022/05/24 12:49:19;;;;;;;4.23;3.90;;;19.70;99.90;;;;;;5052099;28;20174;-66
2022/05/24 12:51:45;;;;;;;4.00;3.80;;;19.70;99.90;;;;;;5052343;28;20186;-66
2022/05/24 12:54:30;;;;;;;4.17;3.87;;;19.70;99.90;;;;;;5052043;28;20195;-65
2022/05/24 12:56:59;;;;;;;3.77;3.67;;;19.60;99.90;;;;;;5052095;28;20199;-65
2022/05/24 12:59:34;;;;;;;4.37;4.07;;;19.00;99.90;;;;;;5036496;28;20171;-66
2022/05/24 13:02:24;;;;;;;4.33;4.07;;;18.30;99.90;;;;;;5036451;28;20162;-66
2022/05/24 13:04:49;;;;;;;4.83;4.53;;;17.80;99.90;;;;;;5039939;28;20237;-66
2022/05/24 13:07:39;;;;;;;6.00;5.70;;;17.20;99.90;;;;;;5050374;28;20202;-67
2022/05/24 13:10:22;;;;;;;5.23;5.03;;;15.50;99.90;;;;;;5051033;28;20183;-67
2022/05/24 13:13:10;;;;;;;4.67;4.47;;;14.20;99.90;;;;;;5047865;28;20171;-67
2022/05/24 13:15:56;;;;;;;4.40;4.20;;;13.90;99.90;;;;;;5050425;28;20178;-67
2022/05/24 13:18:31;;;;;;;4.63;4.43;;;14.30;99.90;;;;;;5051930;28;20186;-66
2022/05/24 13:21:03;;;;;;;4.77;4.57;;;15.10;99.90;;;;;;5051809;28;20535;-67
2022/05/24 13:23:38;;;;;;;5.97;5.67;;;15.90;99.90;;;;;;5050264;28;20182;-66
2022/05/24 13:26:03;;;;;;;4.00;3.90;;;16.60;99.90;;;;;;5051560;28;20175;-66
2022/05/24 13:28:48;;;;;;;3.70;3.60;;;17.00;99.90;;;;;;5051784;28;20173;-67
2022/05/24 13:34:34;;;;;;;3.90;3.70;;;17.40;99.90;;;;;;5024072;28;20218;-67
2022/05/24 13:37:08;;;;;;;3.47;3.37;;;17.70;99.90;;;;;;5051647;28;20206;-67
2022/05/24 13:39:39;;;;;;;4.30;4.10;;;18.10;99.90;;;;;;5031995;28;20561;-66
2022/05/24 13:42:17;;;;;;;3.30;3.20;;;18.20;99.90;;;;;;5040531;28;20185;-67
2022/05/24 13:45:15;;;;;;;3.63;3.53;;;18.90;99.90;;;;;;5051318;28;20178;-68
2022/05/24 13:47:47;;;;;;;3.90;3.80;;;19.90;99.90;;;;;;5051261;28;20624;-67
2022/05/24 13:50:25;;;;;;;3.90;3.70;;;20.00;99.90;;;;;;5052112;28;20167;-67